1861 NOT_NAMED (1861042S10077)


IBTrACS version v04r00. Visit IBTrACS website for data access.
Please direct all questions to the IBTrACS Q and A forum

Storm track - Intensity - Wind Radii - Intensity Data - Source Data - All data

Summary Information

Storm ID 1861042S10077
Start Feb 11 06Z
End Feb 24 06Z
ATCF IDs
Track status Best track data.

Storm track plot

Map of storm track

Intensity plots

No Intensity information for this storm


Radial wind information

No radial wind information for this storm


Position and Intensity Table

BASIN ISO_TIME_________ NATURE LAT LON
degrees north degrees east
SI 1861-02-11 06:00:00 NR -9.70 77.10
SI 09:00:00 NR -9.86 76.99
SI 12:00:00 NR -10.03 76.88
SI 15:00:00 NR -10.20 76.78
SI 18:00:00 NR -10.38 76.68
SI 21:00:00 NR -10.56 76.59
SI 1861-02-12 00:00:00 NR -10.76 76.52
SI 03:00:00 NR -10.97 76.45
SI 06:00:00 NR -11.20 76.40
SI 09:00:00 NR -11.44 76.37
SI 12:00:00 NR -11.70 76.35
SI 15:00:00 NR -11.96 76.34
SI 18:00:00 NR -12.22 76.34
SI 21:00:00 NR -12.47 76.35
SI 1861-02-13 00:00:00 NR -12.70 76.36
SI 03:00:00 NR -12.92 76.38
SI 06:00:00 NR -13.10 76.40
SI 09:00:00 NR -13.24 76.41
SI 12:00:00 NR -13.34 76.41
SI 15:00:00 NR -13.43 76.42
SI 18:00:00 NR -13.50 76.44
SI 21:00:00 NR -13.55 76.45
SI 1861-02-14 00:00:00 NR -13.60 76.46
SI 03:00:00 NR -13.65 76.48
SI 06:00:00 NR -13.70 76.50
SI 09:00:00 NR -13.77 76.52
SI 12:00:00 NR -13.85 76.53
SI 15:00:00 NR -13.92 76.55
SI 18:00:00 NR -14.00 76.58
SI 21:00:00 NR -14.07 76.60
SI 1861-02-15 00:00:00 NR -14.15 76.63
SI 03:00:00 NR -14.22 76.66
SI 06:00:00 NR -14.30 76.70
SI 09:00:00 NR -14.38 76.74
SI 12:00:00 NR -14.45 76.79
SI 15:00:00 NR -14.53 76.83
SI 18:00:00 NR -14.61 76.88
SI 21:00:00 NR -14.68 76.94
SI 1861-02-16 00:00:00 NR -14.76 76.99
SI 03:00:00 NR -14.83 77.05
SI 06:00:00 NR -14.90 77.10
SI 09:00:00 NR -14.96 77.14
SI 12:00:00 NR -15.02 77.18
SI 15:00:00 NR -15.07 77.22
SI 18:00:00 NR -15.13 77.26
SI 21:00:00 NR -15.19 77.31
SI 1861-02-17 00:00:00 NR -15.25 77.36
SI 03:00:00 NR -15.32 77.43
SI 06:00:00 NR -15.40 77.50
SI 09:00:00 NR -15.50 77.59
SI 12:00:00 NR -15.60 77.69
SI 15:00:00 NR -15.72 77.80
SI 18:00:00 NR -15.84 77.92
SI 21:00:00 NR -15.95 78.04
SI 1861-02-18 00:00:00 NR -16.07 78.16
SI 03:00:00 NR -16.19 78.28
SI 06:00:00 NR -16.30 78.40
SI 09:00:00 NR -16.39 78.50
SI 12:00:00 NR -16.49 78.61
SI 15:00:00 NR -16.57 78.71
SI 18:00:00 NR -16.66 78.81
SI 21:00:00 NR -16.74 78.91
SI 1861-02-19 00:00:00 NR -16.83 79.00
SI 03:00:00 NR -16.91 79.10
SI 06:00:00 NR -17.00 79.20
SI 09:00:00 NR -17.10 79.30
SI 12:00:00 NR -17.19 79.40
SI 15:00:00 NR -17.29 79.49
SI 18:00:00 NR -17.39 79.59
SI 21:00:00 NR -17.49 79.69
SI 1861-02-20 00:00:00 NR -17.60 79.79
SI 03:00:00 NR -17.70 79.90
SI 06:00:00 NR -17.80 80.00
SI 09:00:00 NR -17.89 80.09
SI 12:00:00 NR -17.98 80.18
SI 15:00:00 NR -18.07 80.28
SI 18:00:00 NR -18.16 80.38
SI 21:00:00 NR -18.26 80.49
SI 1861-02-21 00:00:00 NR -18.36 80.61
SI 03:00:00 NR -18.48 80.74
SI 06:00:00 NR -18.60 80.90
SI 09:00:00 NR -18.74 81.08
SI 12:00:00 NR -18.89 81.29
SI 15:00:00 NR -19.05 81.51
SI 18:00:00 NR -19.21 81.74
SI 21:00:00 NR -19.38 81.98
SI 1861-02-22 00:00:00 NR -19.56 82.22
SI 03:00:00 NR -19.73 82.46
SI 06:00:00 NR -19.90 82.70
SI 09:00:00 NR -20.07 82.93
SI 12:00:00 NR -20.25 83.16
SI 15:00:00 NR -20.42 83.39
SI 18:00:00 NR -20.59 83.61
SI 21:00:00 NR -20.75 83.82
SI 1861-02-23 00:00:00 NR -20.91 84.03
SI 03:00:00 NR -21.06 84.22
SI 06:00:00 NR -21.20 84.40
SI 09:00:00 NR -21.33 84.56
SI 12:00:00 NR -21.44 84.71
SI 15:00:00 NR -21.55 84.84
SI 18:00:00 NR -21.65 84.97
SI 21:00:00 NR -21.74 85.08
SI 1861-02-24 00:00:00 NR -21.83 85.19
SI 03:00:00 NR -21.92 85.30
SI 06:00:00 NR -22.00 85.40

Source Information

Agency Information
USA
TOKYO
CMA
HKO
NEWDELHI
REUNION WMO-Best-Tracks.txt:Line=347:xxxx861051
BOM
NADI
WELLINGTON
DS824
TD9636
TD9635
NEUMANN
MLC

All available IBTrACS Data

SEASON BASIN SUBBASIN ISO_TIME_________ NATURE LAT LON WMO AGENCY DIST2LAND LANDFALL IFLAG USA SSHS REUNION LAT REUNION LON REUNION TYPE REUNION TNUM STORM SPEED STORM DIR
Year degrees north degrees east km km 1 degrees north degrees east 1 kts degrees
1861 SI MM 1861-02-11 06:00:00 NR -9.70 77.10 reunion 1790 1790 _____O________ -1 -9.70 77.10 99 9.90 4 212
1861 SI MM 09:00:00 NR -9.86 76.99 1814 1814 _____P________ -1 -9.86 76.99 99 4 213
1861 SI MM 12:00:00 NR -10.03 76.88 1828 1828 _____P________ -1 -10.03 76.88 99 4 211
1861 SI MM 15:00:00 NR -10.20 76.78 1852 1852 _____P________ -1 -10.20 76.78 99 4 209
1861 SI MM 18:00:00 NR -10.38 76.68 1876 1876 _____P________ -1 -10.38 76.68 99 4 206
1861 SI MM 21:00:00 NR -10.56 76.59 1901 1901 _____P________ -1 -10.56 76.59 99 4 203
1861 SI MM 1861-02-12 00:00:00 NR -10.76 76.52 1925 1925 _____P________ -1 -10.76 76.52 99 4 199
1861 SI MM 03:00:00 NR -10.97 76.45 1947 1947 _____P________ -1 -10.97 76.45 99 5 195
1861 SI MM 06:00:00 NR -11.20 76.40 reunion 1971 1971 _____O________ -1 -11.20 76.40 99 9.90 5 190
1861 SI MM 09:00:00 NR -11.44 76.37 1993 1993 _____P________ -1 -11.44 76.37 99 5 186
1861 SI MM 12:00:00 NR -11.70 76.35 2028 2028 _____P________ -1 -11.70 76.35 99 5 183
1861 SI MM 15:00:00 NR -11.96 76.34 2061 2061 _____P________ -1 -11.96 76.34 99 5 182
1861 SI MM 18:00:00 NR -12.22 76.34 2083 2083 _____P________ -1 -12.22 76.34 99 5 0
1861 SI MM 21:00:00 NR -12.47 76.35 2115 2113 _____P________ -1 -12.47 76.35 99 5 0
1861 SI MM 1861-02-13 00:00:00 NR -12.70 76.36 2135 2135 _____P________ -1 -12.70 76.36 99 5 175
1861 SI MM 03:00:00 NR -12.92 76.38 2146 2136 _____P________ -1 -12.92 76.38 99 4 175
1861 SI MM 06:00:00 NR -13.10 76.40 reunion 2136 2132 _____O________ -1 -13.10 76.40 99 9.90 3 0
1861 SI MM 09:00:00 NR -13.24 76.41 2132 2127 _____P________ -1 -13.24 76.41 99 2 176
1861 SI MM 12:00:00 NR -13.34 76.41 2127 2123 _____P________ -1 -13.34 76.41 99 2 177
1861 SI MM 15:00:00 NR -13.43 76.42 2123 2118 _____P________ -1 -13.43 76.42 99 2 0
1861 SI MM 18:00:00 NR -13.50 76.44 2118 2114 _____P________ -1 -13.50 76.44 99 1 175
1861 SI MM 21:00:00 NR -13.55 76.45 2114 2114 _____P________ -1 -13.55 76.45 99 1 0
1861 SI MM 1861-02-14 00:00:00 NR -13.60 76.46 2124 2124 _____P________ -1 -13.60 76.46 99 1 157
1861 SI MM 03:00:00 NR -13.65 76.48 2124 2119 _____P________ -1 -13.65 76.48 99 1 158
1861 SI MM 06:00:00 NR -13.70 76.50 reunion 2119 2115 _____O________ -1 -13.70 76.50 99 9.90 1 162
1861 SI MM 09:00:00 NR -13.77 76.52 2115 2115 _____P________ -1 -13.77 76.52 99 2 168
1861 SI MM 12:00:00 NR -13.85 76.53 2115 2110 _____P________ -1 -13.85 76.53 99 2 168
1861 SI MM 15:00:00 NR -13.92 76.55 2120 2116 _____P________ -1 -13.92 76.55 99 2 168
1861 SI MM 18:00:00 NR -14.00 76.58 2116 2112 _____P________ -1 -14.00 76.58 99 2 168
1861 SI MM 21:00:00 NR -14.07 76.60 2112 2112 _____P________ -1 -14.07 76.60 99 2 161
1861 SI MM 1861-02-15 00:00:00 NR -14.15 76.63 2112 2108 _____P________ -1 -14.15 76.63 99 2 161
1861 SI MM 03:00:00 NR -14.22 76.66 2118 2114 _____P________ -1 -14.22 76.66 99 2 157
1861 SI MM 06:00:00 NR -14.30 76.70 reunion 2114 2110 _____O________ -1 -14.30 76.70 99 9.90 2 152
1861 SI MM 09:00:00 NR -14.38 76.74 2110 2110 _____P________ -1 -14.38 76.74 99 2 153
1861 SI MM 12:00:00 NR -14.45 76.79 2116 2116 _____P________ -1 -14.45 76.79 99 2 151
1861 SI MM 15:00:00 NR -14.53 76.83 2116 2112 _____P________ -1 -14.53 76.83 99 2 148
1861 SI MM 18:00:00 NR -14.61 76.88 2122 2118 _____P________ -1 -14.61 76.88 99 2 147
1861 SI MM 21:00:00 NR -14.68 76.94 2118 2118 _____P________ -1 -14.68 76.94 99 2 146
1861 SI MM 1861-02-16 00:00:00 NR -14.76 76.99 2125 2125 _____P________ -1 -14.76 76.99 99 2 144
1861 SI MM 03:00:00 NR -14.83 77.05 2125 2125 _____P________ -1 -14.83 77.05 99 2 144
1861 SI MM 06:00:00 NR -14.90 77.10 reunion 2131 2127 _____O________ -1 -14.90 77.10 99 9.90 2 145
1861 SI MM 09:00:00 NR -14.96 77.14 2127 2127 _____P________ -1 -14.96 77.14 99 1 144
1861 SI MM 12:00:00 NR -15.02 77.18 2138 2134 _____P________ -1 -15.02 77.18 99 1 145
1861 SI MM 15:00:00 NR -15.07 77.22 2134 2134 _____P________ -1 -15.07 77.22 99 1 144
1861 SI MM 18:00:00 NR -15.13 77.26 2144 2141 _____P________ -1 -15.13 77.26 99 1 144
1861 SI MM 21:00:00 NR -15.19 77.31 2141 2141 _____P________ -1 -15.19 77.31 99 2 141
1861 SI MM 1861-02-17 00:00:00 NR -15.25 77.36 2147 2147 _____P________ -1 -15.25 77.36 99 2 139
1861 SI MM 03:00:00 NR -15.32 77.43 2147 2147 _____P________ -1 -15.32 77.43 99 2 139
1861 SI MM 06:00:00 NR -15.40 77.50 reunion 2154 2151 _____O________ -1 -15.40 77.50 99 9.90 2 138
1861 SI MM 09:00:00 NR -15.50 77.59 2161 2158 _____P________ -1 -15.50 77.59 99 3 138
1861 SI MM 12:00:00 NR -15.60 77.69 2168 2165 _____P________ -1 -15.60 77.69 99 3 137
1861 SI MM 15:00:00 NR -15.72 77.80 2175 2172 _____P________ -1 -15.72 77.80 99 3 137
1861 SI MM 18:00:00 NR -15.84 77.92 2182 2179 _____P________ -1 -15.84 77.92 99 3 136
1861 SI MM 21:00:00 NR -15.95 78.04 2186 2186 _____P________ -1 -15.95 78.04 99 3 136
1861 SI MM 1861-02-18 00:00:00 NR -16.07 78.16 2204 2201 _____P________ -1 -16.07 78.16 99 3 135
1861 SI MM 03:00:00 NR -16.19 78.28 2211 2208 _____P________ -1 -16.19 78.28 99 3 135
1861 SI MM 06:00:00 NR -16.30 78.40 reunion 2218 2218 _____O________ -1 -16.30 78.40 99 9.90 3 134
1861 SI MM 09:00:00 NR -16.39 78.50 2226 2226 _____P________ -1 -16.39 78.50 99 3 133
1861 SI MM 12:00:00 NR -16.49 78.61 2233 2233 _____P________ -1 -16.49 78.61 99 3 133
1861 SI MM 15:00:00 NR -16.57 78.71 2241 2241 _____P________ -1 -16.57 78.71 99 3 132
1861 SI MM 18:00:00 NR -16.66 78.81 2249 2249 _____P________ -1 -16.66 78.81 99 3 132
1861 SI MM 21:00:00 NR -16.74 78.91 2259 2256 _____P________ -1 -16.74 78.91 99 3 132
1861 SI MM 1861-02-19 00:00:00 NR -16.83 79.00 2267 2264 _____P________ -1 -16.83 79.00 99 3 133
1861 SI MM 03:00:00 NR -16.91 79.10 2275 2272 _____P________ -1 -16.91 79.10 99 3 133
1861 SI MM 06:00:00 NR -17.00 79.20 reunion 2283 2283 _____O________ -1 -17.00 79.20 99 9.90 3 134
1861 SI MM 09:00:00 NR -17.10 79.30 2291 2291 _____P________ -1 -17.10 79.30 99 3 136
1861 SI MM 12:00:00 NR -17.19 79.40 2299 2299 _____P________ -1 -17.19 79.40 99 3 136
1861 SI MM 15:00:00 NR -17.29 79.49 2307 2307 _____P________ -1 -17.29 79.49 99 3 137
1861 SI MM 18:00:00 NR -17.39 79.59 2315 2315 _____P________ -1 -17.39 79.59 99 3 137
1861 SI MM 21:00:00 NR -17.49 79.69 2323 2321 _____P________ -1 -17.49 79.69 99 3 137
1861 SI MM 1861-02-20 00:00:00 NR -17.60 79.79 2331 2329 _____P________ -1 -17.60 79.79 99 3 136
1861 SI MM 03:00:00 NR -17.70 79.90 2339 2339 _____P________ -1 -17.70 79.90 99 3 136
1861 SI MM 06:00:00 NR -17.80 80.00 reunion 2348 2348 _____O________ -1 -17.80 80.00 99 9.90 3 136
1861 SI MM 09:00:00 NR -17.89 80.09 2356 2356 _____P________ -1 -17.89 80.09 99 3 136
1861 SI MM 12:00:00 NR -17.98 80.18 2365 2365 _____P________ -1 -17.98 80.18 99 3 136
1861 SI MM 15:00:00 NR -18.07 80.28 2373 2373 _____P________ -1 -18.07 80.28 99 3 135
1861 SI MM 18:00:00 NR -18.16 80.38 2382 2382 _____P________ -1 -18.16 80.38 99 3 134
1861 SI MM 21:00:00 NR -18.26 80.49 2390 2390 _____P________ -1 -18.26 80.49 99 3 132
1861 SI MM 1861-02-21 00:00:00 NR -18.36 80.61 2399 2399 _____P________ -1 -18.36 80.61 99 3 131
1861 SI MM 03:00:00 NR -18.48 80.74 2408 2408 _____P________ -1 -18.48 80.74 99 4 130
1861 SI MM 06:00:00 NR -18.60 80.90 2427 2427 _____O________ -1 -18.60 80.90 99 9.90 4 129
1861 SI MM 09:00:00 NR -18.74 81.08 2446 2445 _____P________ -1 -18.74 81.08 99 5 128
1861 SI MM 12:00:00 NR -18.89 81.29 2464 2464 _____P________ -1 -18.89 81.29 99 5 128
1861 SI MM 15:00:00 NR -19.05 81.51 2483 2482 _____P________ -1 -19.05 81.51 99 5 127
1861 SI MM 18:00:00 NR -19.21 81.74 2501 2501 _____P________ -1 -19.21 81.74 99 6 127
1861 SI MM 21:00:00 NR -19.38 81.98 2530 2530 _____P________ -1 -19.38 81.98 99 6 127
1861 SI MM 1861-02-22 00:00:00 NR -19.56 82.22 2549 2549 _____P________ -1 -19.56 82.22 99 6 127
1861 SI MM 03:00:00 NR -19.73 82.46 2579 2578 _____P________ -1 -19.73 82.46 99 6 127
1861 SI MM 06:00:00 NR -19.90 82.70 2597 2597 _____O________ -1 -19.90 82.70 99 9.90 6 128
1861 SI MM 09:00:00 NR -20.07 82.93 2616 2616 _____P________ -1 -20.07 82.93 99 6 129
1861 SI MM 12:00:00 NR -20.25 83.16 2646 2645 _____P________ -1 -20.25 83.16 99 6 129
1861 SI MM 15:00:00 NR -20.42 83.39 2665 2665 _____P________ -1 -20.42 83.39 99 5 129
1861 SI MM 18:00:00 NR -20.59 83.61 2685 2683 _____P________ -1 -20.59 83.61 99 5 129
1861 SI MM 21:00:00 NR -20.75 83.82 2694 2687 _____P________ -1 -20.75 83.82 99 5 130
1861 SI MM 1861-02-23 00:00:00 NR -20.91 84.03 2690 2683 _____P________ -1 -20.91 84.03 99 5 130
1861 SI MM 03:00:00 NR -21.06 84.22 2694 2688 _____P________ -1 -21.06 84.22 99 5 130
1861 SI MM 06:00:00 NR -21.20 84.40 2690 2684 _____O________ -1 -21.20 84.40 99 9.90 4 130
1861 SI MM 09:00:00 NR -21.33 84.56 2686 2686 _____P________ -1 -21.33 84.56 99 4 130
1861 SI MM 12:00:00 NR -21.44 84.71 2689 2689 _____P________ -1 -21.44 84.71 99 3 130
1861 SI MM 15:00:00 NR -21.55 84.84 2701 2689 _____P________ -1 -21.55 84.84 99 3 131
1861 SI MM 18:00:00 NR -21.65 84.97 2689 2689 _____P________ -1 -21.65 84.97 99 3 130
1861 SI MM 21:00:00 NR -21.74 85.08 2692 2692 _____P________ -1 -21.74 85.08 99 3 131
1861 SI MM 1861-02-24 00:00:00 NR -21.83 85.19 2695 2695 _____P________ -1 -21.83 85.19 99 3 131
1861 SI MM 03:00:00 NR -21.92 85.30 2698 2698 _____P________ -1 -21.92 85.30 99 3 131
1861 SI MM 06:00:00 NR -22.00 85.40 2701 _____O________ -1 -22.00 85.40 99 9.90 3 132